Time;durP1;ratioP1;P1;durP2;ratioP2;P2;SDS_P1;SDS_P2;PMS_P1;PMS_P2;Temp;Humidity;BMP_temperature;BMP_pressure;BME280_temperature;BME280_humidity;BME280_pressure;Samples;Min_cycle;Max_cycle;Signal;HPM_P1;HPM_P2
2021/03/21 00:00:46;;;;;;;25.27;8.73;;;6.20;99.90;;;;;;5049535;28;20078;-80
2021/03/21 00:03:13;;;;;;;18.13;7.38;;;6.20;99.90;;;;;;5067620;28;20103;-77
2021/03/21 00:05:39;;;;;;;27.25;8.88;;;6.20;99.90;;;;;;5048662;28;20033;-78
2021/03/21 00:08:13;;;;;;;23.23;8.07;;;6.20;99.90;;;;;;5058503;28;20055;-79
2021/03/21 00:10:39;;;;;;;21.15;9.05;;;6.20;99.90;;;;;;5054547;28;20166;-80
2021/03/21 00:13:05;;;;;;;25.33;7.93;;;6.20;99.90;;;;;;5057236;28;20047;-78
2021/03/21 00:15:31;;;;;;;30.50;9.10;;;6.20;99.90;;;;;;5044596;28;20033;-78
2021/03/21 00:17:59;;;;;;;21.25;8.52;;;6.20;99.90;;;;;;5059038;28;20055;-79
2021/03/21 00:20:30;;;;;;;23.02;8.25;;;6.20;99.90;;;;;;5088852;28;20028;-78
2021/03/21 00:22:57;;;;;;;24.42;8.52;;;6.20;99.90;;;;;;5104053;27;20097;-80
2021/03/21 00:25:25;;;;;;;27.55;8.93;;;6.20;99.90;;;;;;5107178;28;20040;-79
2021/03/21 00:27:51;;;;;;;22.02;8.13;;;6.20;99.90;;;;;;5088179;27;20066;-78
2021/03/21 00:30:24;;;;;;;23.38;8.70;;;6.10;99.90;;;;;;5084808;28;20036;-78
2021/03/21 00:32:50;;;;;;;20.77;8.10;;;6.20;99.90;;;;;;5088396;28;20101;-80
2021/03/21 00:35:16;;;;;;;29.50;10.38;;;6.20;99.90;;;;;;5089420;28;20428;-81
2021/03/21 00:37:42;;;;;;;37.65;12.25;;;6.20;99.90;;;;;;5085512;28;20040;-79
2021/03/21 00:40:13;;;;;;;31.48;12.95;;;6.20;99.90;;;;;;5084016;28;20054;-77
2021/03/21 00:42:39;;;;;;;27.02;11.10;;;6.20;99.90;;;;;;5110992;28;20039;-79
2021/03/21 00:45:07;;;;;;;29.83;12.70;;;6.20;99.90;;;;;;5082062;28;20036;-77
2021/03/21 00:47:34;;;;;;;33.45;13.43;;;6.20;99.90;;;;;;5110580;28;20040;-78
2021/03/21 00:50:01;;;;;;;44.50;13.93;;;6.30;99.90;;;;;;5103878;28;20057;-79
2021/03/21 00:52:26;;;;;;;34.88;13.35;;;6.30;99.90;;;;;;5109801;28;20039;-79
2021/03/21 00:54:52;;;;;;;40.95;13.50;;;6.20;99.90;;;;;;5084054;28;20497;-79
2021/03/21 00:57:18;;;;;;;37.28;12.82;;;6.20;99.90;;;;;;5088314;28;20047;-78
2021/03/21 00:59:43;;;;;;;36.72;13.15;;;6.20;99.90;;;;;;5106824;28;20039;-79
2021/03/21 01:02:10;;;;;;;36.60;12.98;;;6.20;99.90;;;;;;5082840;28;20036;-78
2021/03/21 01:04:36;;;;;;;40.97;14.13;;;6.20;99.90;;;;;;5087985;28;20035;-78
2021/03/21 01:07:02;;;;;;;34.03;11.77;;;6.30;99.90;;;;;;5089533;28;20382;-80
2021/03/21 01:09:28;;;;;;;32.63;11.63;;;6.20;99.90;;;;;;5104649;28;20506;-77
2021/03/21 01:11:53;;;;;;;27.50;9.48;;;6.20;99.90;;;;;;5090750;28;20059;-80
2021/03/21 01:14:19;;;;;;;29.63;11.52;;;6.20;99.90;;;;;;5092321;28;20031;-77
2021/03/21 01:16:46;;;;;;;31.27;10.85;;;6.20;99.90;;;;;;5093394;28;20398;-79
2021/03/21 01:19:18;;;;;;;27.92;10.52;;;6.10;99.90;;;;;;5107202;28;20424;-80
2021/03/21 01:21:45;;;;;;;29.17;10.23;;;6.20;99.90;;;;;;5082280;28;20050;-77
2021/03/21 01:24:12;;;;;;;25.63;10.05;;;6.20;99.90;;;;;;5110106;28;20115;-80
2021/03/21 01:26:38;;;;;;;17.95;5.68;;;6.20;99.90;;;;;;5104354;28;20060;-79
2021/03/21 01:29:04;;;;;;;29.00;9.77;;;6.20;99.90;;;;;;5086976;28;20450;-78
2021/03/21 01:31:30;;;;;;;25.00;8.40;;;6.20;99.90;;;;;;5104896;28;20118;-80
2021/03/21 01:33:56;;;;;;;11.85;5.70;;;6.20;99.90;;;;;;5105601;28;20448;-81
2021/03/21 01:36:34;;;;;;;20.48;7.45;;;6.30;99.90;;;;;;5108483;28;20106;-79
2021/03/21 01:39:05;;;;;;;15.13;6.55;;;6.20;99.90;;;;;;5108178;28;20470;-80
2021/03/21 01:41:34;;;;;;;16.40;5.70;;;6.20;99.90;;;;;;5079759;28;20044;-79
2021/03/21 01:44:01;;;;;;;12.43;5.32;;;6.10;99.90;;;;;;5108926;28;20076;-79
2021/03/21 01:46:35;;;;;;;16.60;6.45;;;6.20;99.90;;;;;;5088524;28;20035;-78
2021/03/21 01:49:04;;;;;;;;;;;6.10;99.90;;;;;;5110963;28;20479;-78
2021/03/21 01:51:38;;;;;;;21.77;7.22;;;6.10;99.90;;;;;;5092958;28;20351;-80
2021/03/21 01:54:08;;;;;;;22.50;7.28;;;6.00;99.90;;;;;;5107588;27;20040;-77
2021/03/21 01:56:36;;;;;;;17.65;6.80;;;6.00;99.90;;;;;;5091132;28;20036;-79
2021/03/21 01:59:09;;;;;;;17.92;6.28;;;6.00;99.90;;;;;;5107301;28;20032;-80
2021/03/21 02:01:35;;;;;;;24.55;7.75;;;6.10;99.90;;;;;;5080247;28;20032;-80
2021/03/21 02:04:02;;;;;;;19.88;7.13;;;6.10;99.90;;;;;;5102472;28;20043;-82
2021/03/21 02:06:36;;;;;;;18.40;7.38;;;6.10;99.90;;;;;;5109873;28;20054;-79
2021/03/21 02:09:23;;;;;;;18.48;6.47;;;6.10;99.90;;;;;;5110874;28;20031;-80
2021/03/21 02:12:00;;;;;;;25.05;6.95;;;6.10;99.90;;;;;;5091977;28;20058;-77
2021/03/21 02:14:46;;;;;;;20.65;6.65;;;6.10;99.90;;;;;;5107948;28;20043;-78
2021/03/21 02:17:20;;;;;;;21.35;6.22;;;6.10;99.90;;;;;;5089296;28;20438;-78
2021/03/21 02:20:04;;;;;;;21.10;6.28;;;6.10;99.90;;;;;;5082722;28;20040;-78
2021/03/21 02:22:35;;;;;;;23.58;6.60;;;6.10;99.90;;;;;;5110525;28;20081;-79
2021/03/21 02:25:03;;;;;;;21.48;6.65;;;6.10;99.90;;;;;;5106057;28;20051;-77
2021/03/21 02:27:38;;;;;;;20.65;5.93;;;6.10;99.90;;;;;;5102906;28;20040;-78
2021/03/21 02:30:15;;;;;;;21.05;5.38;;;6.20;99.90;;;;;;5107239;28;20028;-77
2021/03/21 02:32:51;;;;;;;19.20;4.90;;;6.20;99.90;;;;;;5083388;28;20478;-77
2021/03/21 02:35:53;;;;;;;22.20;5.15;;;6.30;99.90;;;;;;5098353;28;20101;-80
2021/03/21 02:38:35;;;;;;;22.02;5.15;;;6.20;99.90;;;;;;5085269;28;20048;-78
2021/03/21 02:41:15;;;;;;;22.15;5.68;;;6.20;99.90;;;;;;5071303;28;20094;-80
2021/03/21 02:43:48;;;;;;;25.58;5.32;;;6.20;99.90;;;;;;5068521;28;20052;-77
2021/03/21 02:46:25;;;;;;;22.90;5.70;;;6.20;99.90;;;;;;5089046;28;20075;-80
2021/03/21 02:49:04;;;;;;;21.85;4.05;;;6.20;99.90;;;;;;5086148;28;20071;-80
2021/03/21 02:51:36;;;;;;;24.65;4.80;;;6.20;99.90;;;;;;5085738;28;20147;-79
2021/03/21 02:54:10;;;;;;;25.52;4.35;;;6.20;99.90;;;;;;5070524;28;20077;-79
2021/03/21 02:56:39;;;;;;;22.80;3.92;;;6.20;99.90;;;;;;5070072;28;20406;-78
2021/03/21 02:59:10;;;;;;;20.23;4.15;;;6.20;99.90;;;;;;5073608;28;20044;-77
2021/03/21 03:01:48;;;;;;;21.92;4.20;;;6.30;99.90;;;;;;5085797;28;20051;-77
2021/03/21 03:04:17;;;;;;;24.15;4.93;;;6.20;99.90;;;;;;5087381;28;20119;-78
2021/03/21 03:06:50;;;;;;;24.25;4.32;;;6.30;99.90;;;;;;5069386;28;20102;-78
2021/03/21 03:09:23;;;;;;;17.23;2.45;;;6.30;99.90;;;;;;5087594;28;20040;-78
2021/03/21 03:12:06;;;;;;;16.10;3.75;;;6.30;99.90;;;;;;5060530;28;20040;-77
2021/03/21 03:14:35;;;;;;;26.38;3.95;;;6.20;99.90;;;;;;5079441;28;20124;-79
2021/03/21 03:17:32;;;;;;;19.85;3.22;;;6.20;99.90;;;;;;5087733;28;20407;-77
2021/03/21 03:20:06;;;;;;;26.02;3.22;;;6.10;99.90;;;;;;5084567;28;20052;-79
2021/03/21 03:22:31;;;;;;;30.88;3.97;;;6.10;99.90;;;;;;5095985;28;20039;-80
2021/03/21 03:25:06;;;;;;;31.15;3.72;;;6.20;99.90;;;;;;5106346;28;20032;-79
2021/03/21 03:27:55;;;;;;;16.58;2.63;;;6.10;99.90;;;;;;5108182;28;20082;-77
2021/03/21 03:30:26;;;;;;;23.52;3.15;;;6.20;99.90;;;;;;5097591;28;20090;-78
2021/03/21 03:32:52;;;;;;;33.85;4.43;;;6.20;99.90;;;;;;5106896;28;20072;-79
2021/03/21 03:35:21;;;;;;;37.33;4.45;;;6.20;99.90;;;;;;5108174;28;20514;-79
2021/03/21 03:37:46;;;;;;;26.42;3.17;;;6.30;99.90;;;;;;5103082;28;20126;-78
2021/03/21 03:40:14;;;;;;;22.75;3.08;;;6.20;99.90;;;;;;5083808;28;20541;-80
2021/03/21 03:42:51;;;;;;;24.52;3.25;;;6.20;99.90;;;;;;5090864;28;20150;-80
2021/03/21 03:45:22;;;;;;;42.50;3.42;;;6.20;99.90;;;;;;5106447;28;20055;-79
2021/03/21 03:48:05;;;;;;;25.40;3.90;;;6.20;99.90;;;;;;5082419;28;20078;-78
2021/03/21 03:50:40;;;;;;;45.40;4.63;;;6.20;99.90;;;;;;5109921;28;20043;-79
2021/03/21 03:53:25;;;;;;;;;;;6.10;99.90;;;;;;5100386;28;20043;-79
2021/03/21 03:56:05;;;;;;;20.33;3.17;;;6.20;99.90;;;;;;5098272;28;19931;-78
2021/03/21 03:59:30;;;;;;;26.88;3.33;;;6.20;99.90;;;;;;5100263;28;20040;-78
2021/03/21 04:02:12;;;;;;;25.60;2.72;;;6.20;99.90;;;;;;5049431;28;20037;-78
2021/03/21 04:04:48;;;;;;;23.88;2.72;;;6.30;99.90;;;;;;5049658;28;20045;-78
2021/03/21 04:07:38;;;;;;;28.02;3.13;;;6.20;99.90;;;;;;5034812;28;20040;-78
2021/03/21 04:10:14;;;;;;;24.77;2.80;;;6.20;99.90;;;;;;5044202;28;20440;-79
2021/03/21 04:12:46;;;;;;;17.48;2.70;;;6.10;99.90;;;;;;5036935;28;20045;-78
2021/03/21 04:15:19;;;;;;;18.83;2.42;;;6.20;99.90;;;;;;5037110;28;20560;-80
2021/03/21 04:17:59;;;;;;;16.42;2.22;;;6.20;99.90;;;;;;5048193;28;20112;-80
2021/03/21 04:20:36;;;;;;;20.15;2.17;;;6.20;99.90;;;;;;5048704;28;20122;-80
2021/03/21 04:23:05;;;;;;;18.83;1.88;;;6.20;99.90;;;;;;5040817;28;20049;-79
2021/03/21 04:25:36;;;;;;;14.93;1.67;;;6.20;99.90;;;;;;5043582;28;20037;-78
2021/03/21 04:28:08;;;;;;;18.77;2.35;;;6.20;99.90;;;;;;5037272;28;20400;-79
2021/03/21 04:30:40;;;;;;;16.08;1.95;;;6.10;99.90;;;;;;5041048;28;20235;-79
2021/03/21 04:33:10;;;;;;;12.45;2.00;;;6.10;99.90;;;;;;5020305;28;20052;-79
2021/03/21 04:35:41;;;;;;;16.83;1.90;;;6.10;99.90;;;;;;5073675;28;20043;-78
2021/03/21 04:38:38;;;;;;;26.35;3.63;;;6.10;99.90;;;;;;5110264;28;20046;-78
2021/03/21 04:41:07;;;;;;;17.20;2.58;;;6.10;99.90;;;;;;5097279;28;20044;-77
2021/03/21 04:43:55;;;;;;;27.05;3.17;;;6.10;99.90;;;;;;5106390;28;20055;-78
2021/03/21 04:46:30;;;;;;;17.75;2.55;;;6.20;99.90;;;;;;5109116;28;20432;-78
2021/03/21 04:48:56;;;;;;;19.55;2.67;;;6.20;99.90;;;;;;5108590;28;20031;-77
2021/03/21 04:51:32;;;;;;;18.00;2.58;;;6.20;99.90;;;;;;5091498;28;20090;-78
2021/03/21 04:54:16;;;;;;;24.38;3.30;;;6.20;99.90;;;;;;5109631;27;20032;-77
2021/03/21 04:56:52;;;;;;;12.25;2.28;;;6.10;99.90;;;;;;5108321;28;20036;-77
2021/03/21 04:59:38;;;;;;;13.88;2.10;;;6.10;99.90;;;;;;5110997;28;20117;-77
2021/03/21 05:02:19;;;;;;;21.10;3.47;;;6.10;99.90;;;;;;5093266;28;20047;-77
2021/03/21 05:04:50;;;;;;;19.77;3.13;;;6.20;99.90;;;;;;5080852;28;20119;-79
2021/03/21 05:07:31;;;;;;;21.63;2.80;;;6.20;99.90;;;;;;5083406;28;20039;-78
2021/03/21 05:10:02;;;;;;;17.90;2.97;;;6.10;99.90;;;;;;5105207;28;20028;-79
2021/03/21 05:12:45;;;;;;;16.98;2.75;;;6.10;99.90;;;;;;5081731;28;20051;-77
2021/03/21 05:15:15;;;;;;;20.23;3.03;;;6.10;99.90;;;;;;5097105;28;20097;-79
2021/03/21 05:17:53;;;;;;;21.42;3.47;;;6.10;99.90;;;;;;5105406;27;20538;-79
2021/03/21 05:20:41;;;;;;;32.08;3.70;;;6.10;99.90;;;;;;5093757;28;20060;-77
2021/03/21 05:23:13;;;;;;;29.23;3.63;;;6.10;99.90;;;;;;5107138;28;20474;-77
2021/03/21 05:25:59;;;;;;;21.65;3.05;;;6.10;99.90;;;;;;5110158;28;20049;-78
2021/03/21 05:28:49;;;;;;;27.98;4.25;;;6.10;99.90;;;;;;5106397;28;20056;-78
2021/03/21 05:31:15;;;;;;;24.83;3.15;;;6.20;99.90;;;;;;5095946;28;20032;-78
2021/03/21 05:33:43;;;;;;;28.08;4.05;;;6.10;99.90;;;;;;5111185;28;20038;-77
2021/03/21 05:36:22;;;;;;;28.67;3.80;;;6.00;99.90;;;;;;5104825;28;20501;-78
2021/03/21 05:39:04;;;;;;;32.63;4.15;;;6.10;99.90;;;;;;5110172;28;20548;-79
2021/03/21 05:41:50;;;;;;;33.20;4.10;;;6.10;99.90;;;;;;5107507;28;20390;-78
2021/03/21 05:44:42;;;;;;;31.60;4.70;;;6.00;99.90;;;;;;5110940;27;20084;-76
2021/03/21 05:47:26;;;;;;;30.55;4.10;;;5.90;99.90;;;;;;5106297;28;20055;-80
2021/03/21 05:50:29;;;;;;;34.28;4.95;;;5.90;99.90;;;;;;5102748;28;20039;-78
2021/03/21 05:53:10;;;;;;;40.70;5.10;;;5.90;99.90;;;;;;5091504;28;20042;-78
2021/03/21 05:55:46;;;;;;;35.00;3.90;;;5.80;99.90;;;;;;5092027;28;20043;-79
2021/03/21 05:58:35;;;;;;;38.38;4.65;;;5.90;99.90;;;;;;5111117;28;20051;-80
2021/03/21 06:01:06;;;;;;;27.83;3.38;;;5.90;99.90;;;;;;5088506;28;20078;-77
2021/03/21 06:03:47;;;;;;;31.27;3.40;;;6.00;99.90;;;;;;5110202;28;20040;-78
2021/03/21 06:06:20;;;;;;;28.33;3.78;;;5.90;99.90;;;;;;5111249;28;20027;-77
2021/03/21 06:09:02;;;;;;;30.55;4.03;;;5.90;99.90;;;;;;5091625;28;20470;-78
2021/03/21 06:11:45;;;;;;;26.40;4.07;;;5.90;99.90;;;;;;5109194;28;20510;-77
2021/03/21 06:14:38;;;;;;;37.13;4.78;;;5.80;99.90;;;;;;5091126;28;20108;-77
2021/03/21 06:17:19;;;;;;;34.22;4.45;;;5.80;99.90;;;;;;5111645;28;20547;-78
2021/03/21 06:19:54;;;;;;;32.58;4.32;;;5.80;99.90;;;;;;5109688;28;20192;-78
2021/03/21 06:22:51;;;;;;;35.80;4.18;;;5.80;99.90;;;;;;5093248;28;20035;-77
2021/03/21 06:25:37;;;;;;;48.22;5.72;;;5.80;99.90;;;;;;5089610;28;20401;-78
2021/03/21 06:28:31;;;;;;;27.45;3.28;;;5.70;99.90;;;;;;5108977;28;20487;-78
2021/03/21 06:31:12;;;;;;;22.10;4.13;;;5.80;99.90;;;;;;5110310;28;20081;-80
2021/03/21 06:34:04;;;;;;;47.33;5.65;;;5.70;99.90;;;;;;5092724;28;20036;-77
2021/03/21 06:36:47;;;;;;;29.98;4.35;;;5.70;99.90;;;;;;5092359;28;20085;-78
2021/03/21 06:39:31;;;;;;;32.90;4.53;;;5.60;99.90;;;;;;5110196;28;20036;-78
2021/03/21 06:42:13;;;;;;;34.55;4.68;;;5.60;99.90;;;;;;5090021;28;20107;-79
2021/03/21 06:45:00;;;;;;;38.95;4.95;;;5.60;99.90;;;;;;5086531;28;20044;-76
2021/03/21 06:47:29;;;;;;;38.70;5.55;;;5.60;99.90;;;;;;5104738;28;20062;-78
2021/03/21 06:50:25;;;;;;;21.35;3.88;;;5.70;99.90;;;;;;5090095;28;20107;-78
2021/03/21 06:53:24;;;;;;;31.73;4.13;;;5.70;99.90;;;;;;5087720;28;20044;-78
2021/03/21 06:55:57;;;;;;;38.22;4.93;;;5.80;99.90;;;;;;5090740;28;20044;-79
2021/03/21 06:59:00;;;;;;;32.63;4.32;;;5.80;99.90;;;;;;5107942;28;20028;-77
2021/03/21 07:01:34;;;;;;;41.65;6.07;;;5.80;99.90;;;;;;5104648;28;20058;-78
2021/03/21 07:04:19;;;;;;;41.53;5.70;;;5.90;99.90;;;;;;5104573;28;20152;-76
2021/03/21 07:07:06;;;;;;;35.90;4.40;;;6.00;99.90;;;;;;5093464;28;20044;-77
2021/03/21 07:10:03;;;;;;;36.72;4.28;;;5.90;99.90;;;;;;5086391;28;20047;-77
2021/03/21 07:12:48;;;;;;;42.25;5.13;;;5.90;99.90;;;;;;5109794;28;20055;-77
2021/03/21 07:15:44;;;;;;;27.42;3.85;;;6.00;99.90;;;;;;5105016;28;20067;-76
2021/03/21 07:18:38;;;;;;;37.63;4.70;;;6.10;99.90;;;;;;5099327;28;20055;-78
2021/03/21 07:21:19;;;;;;;32.40;5.30;;;6.00;99.90;;;;;;5102514;28;20101;-79
2021/03/21 07:24:05;;;;;;;35.88;5.47;;;6.00;99.90;;;;;;5088415;28;20048;-78
2021/03/21 07:27:05;;;;;;;49.85;6.00;;;6.00;99.90;;;;;;5108612;28;20036;-80
2021/03/21 07:29:45;;;;;;;32.58;5.15;;;6.00;99.90;;;;;;5110799;28;20067;-79
2021/03/21 07:32:38;;;;;;;33.92;4.43;;;6.10;99.90;;;;;;5119252;28;20036;-78
2021/03/21 07:35:22;;;;;;;38.85;6.38;;;6.10;99.90;;;;;;5094954;28;20040;-78
2021/03/21 07:38:13;;;;;;;48.70;7.25;;;6.20;99.90;;;;;;5097736;28;20035;-79
2021/03/21 07:40:50;;;;;;;39.60;4.82;;;6.20;99.90;;;;;;5116492;28;20076;-77
2021/03/21 07:43:27;;;;;;;25.42;4.57;;;6.20;99.90;;;;;;5116169;28;20058;-78
2021/03/21 07:46:25;;;;;;;44.17;6.40;;;6.20;99.90;;;;;;5111866;28;20040;-78
2021/03/21 07:49:10;;;;;;;40.58;5.85;;;6.30;99.90;;;;;;5111869;28;20043;-78
2021/03/21 07:51:50;;;;;;;31.83;4.72;;;6.20;99.90;;;;;;5107276;27;20104;-76
2021/03/21 07:54:36;;;;;;;45.15;7.22;;;6.20;99.90;;;;;;5090509;28;20406;-77
2021/03/21 07:57:07;;;;;;;35.28;5.05;;;6.20;99.90;;;;;;5106689;27;20036;-78
2021/03/21 07:59:34;;;;;;;28.92;5.00;;;6.30;99.90;;;;;;5108273;28;20040;-76
2021/03/21 08:02:00;;;;;;;45.03;5.72;;;6.40;99.90;;;;;;5093364;27;20136;-79
2021/03/21 08:04:30;;;;;;;50.30;5.60;;;6.40;99.90;;;;;;5111974;27;20040;-78
2021/03/21 08:07:14;;;;;;;29.85;4.72;;;6.50;99.90;;;;;;5093818;28;20398;-76
2021/03/21 08:09:43;;;;;;;39.58;6.05;;;6.50;99.90;;;;;;5115181;27;20125;-76
2021/03/21 08:12:18;;;;;;;39.28;5.20;;;6.50;99.90;;;;;;5115444;28;20055;-80
2021/03/21 08:14:49;;;;;;;38.17;6.85;;;6.50;99.90;;;;;;5111167;28;20463;-81
2021/03/21 08:17:31;;;;;;;32.03;5.28;;;6.50;99.90;;;;;;5110570;28;20146;-77
2021/03/21 08:20:15;;;;;;;26.95;5.97;;;6.50;99.90;;;;;;5091271;28;20463;-81
2021/03/21 08:22:41;;;;;;;38.00;5.25;;;6.60;99.90;;;;;;5094136;28;20047;-76
2021/03/21 08:25:29;;;;;;;32.60;4.97;;;6.60;99.90;;;;;;5083258;28;20038;-78
2021/03/21 08:27:56;;;;;;;38.33;5.05;;;6.70;99.90;;;;;;5113480;28;20059;-77
2021/03/21 08:30:27;;;;;;;43.67;6.18;;;6.60;99.90;;;;;;5085736;28;20111;-79
2021/03/21 08:33:04;;;;;;;48.15;6.15;;;6.90;99.90;;;;;;5087594;28;20119;-77
2021/03/21 08:35:34;;;;;;;49.13;6.75;;;6.80;99.90;;;;;;5113223;28;20058;-81
2021/03/21 08:38:12;;;;;;;39.63;6.32;;;6.70;99.90;;;;;;5109086;28;20047;-81
2021/03/21 08:40:39;;;;;;;35.90;5.63;;;6.70;99.90;;;;;;5111679;28;20042;-81
2021/03/21 08:43:34;;;;;;;31.38;5.13;;;6.80;99.90;;;;;;5091738;28;20044;-82
2021/03/21 08:46:00;;;;;;;34.67;5.18;;;6.80;99.90;;;;;;5090245;28;20055;-86
2021/03/21 08:48:41;;;;;;;38.63;6.68;;;6.70;99.90;;;;;;5102769;27;20040;-82
2021/03/21 08:51:13;;;;;;;36.80;5.07;;;7.10;99.90;;;;;;5087954;28;20956;-82
2021/03/21 08:54:00;;;;;;;37.47;5.55;;;6.70;99.90;;;;;;5108779;28;20038;-82
2021/03/21 08:56:37;;;;;;;40.35;6.28;;;6.90;99.90;;;;;;5094828;28;20135;-81
2021/03/21 08:59:32;;;;;;;41.10;5.30;;;6.80;99.90;;;;;;5096888;28;20054;-83
2021/03/21 09:02:09;;;;;;;55.67;6.50;;;6.90;99.90;;;;;;5114719;28;20475;-81
2021/03/21 09:04:39;;;;;;;51.50;6.13;;;6.90;99.90;;;;;;5105835;28;20051;-84
2021/03/21 09:07:20;;;;;;;47.13;7.38;;;7.00;99.90;;;;;;5107643;28;20040;-82
2021/03/21 09:09:46;;;;;;;51.72;6.68;;;7.00;99.90;;;;;;5089718;28;20071;-81
2021/03/21 09:12:31;;;;;;;44.40;6.55;;;7.10;99.90;;;;;;5077340;28;20483;-82
2021/03/21 09:15:37;;;;;;;27.95;4.38;;;7.20;99.90;;;;;;5110210;28;20047;-79
2021/03/21 09:18:23;;;;;;;;;;;7.10;99.90;;;;;;5089485;28;20044;-81
2021/03/21 09:21:00;;;;;;;31.80;5.18;;;7.00;99.90;;;;;;5098875;28;19925;-81
2021/03/21 09:23:32;;;;;;;40.08;6.60;;;7.10;99.90;;;;;;5111771;28;20036;-79
2021/03/21 09:25:59;;;;;;;30.10;5.65;;;7.00;99.90;;;;;;5083679;28;20500;-81
2021/03/21 09:28:26;;;;;;;47.33;6.30;;;7.30;99.90;;;;;;5109274;28;20043;-80
2021/03/21 09:30:54;;;;;;;29.17;4.70;;;7.10;99.90;;;;;;5080637;28;20044;-80
2021/03/21 09:33:29;;;;;;;48.05;6.88;;;7.10;99.90;;;;;;5106823;28;20048;-81
2021/03/21 09:36:06;;;;;;;;;;;7.10;99.90;;;;;;5092063;28;20028;-81
2021/03/21 09:38:49;;;;;;;34.70;5.60;;;7.00;99.90;;;;;;5073770;28;20052;-80
2021/03/21 09:41:16;;;;;;;55.47;7.50;;;7.20;99.90;;;;;;5080403;28;20120;-82
2021/03/21 09:43:42;;;;;;;47.65;6.70;;;7.00;99.90;;;;;;5104760;28;20181;-81
2021/03/21 09:46:38;;;;;;;37.33;6.70;;;7.50;99.90;;;;;;5093815;28;20042;-80
2021/03/21 09:49:15;;;;;;;;;;;7.30;99.90;;;;;;5084591;28;20077;-81
2021/03/21 09:51:43;;;;;;;33.70;5.65;;;7.20;99.90;;;;;;5112799;28;20439;-82
2021/03/21 09:54:30;;;;;;;33.70;6.40;;;7.50;99.90;;;;;;5112039;28;20483;-81
2021/03/21 09:57:25;;;;;;;52.25;7.25;;;7.20;99.90;;;;;;5095542;28;20054;-81
2021/03/21 10:00:02;;;;;;;43.63;6.60;;;7.20;99.90;;;;;;5061107;28;20114;-81
2021/03/21 10:02:54;;;;;;;45.65;5.05;;;7.10;99.90;;;;;;5070809;28;20112;-82
2021/03/21 10:05:37;;;;;;;38.05;6.13;;;7.10;99.90;;;;;;5070251;28;20049;-81
2021/03/21 10:08:30;;;;;;;36.63;4.80;;;7.10;99.90;;;;;;5053167;28;20059;-81
2021/03/21 10:11:03;;;;;;;43.30;6.65;;;7.00;99.90;;;;;;5063075;28;20049;-81
2021/03/21 10:13:30;;;;;;;43.40;6.35;;;7.00;99.90;;;;;;5053427;28;20051;-83
2021/03/21 10:16:27;;;;;;;40.42;6.65;;;7.00;99.90;;;;;;5069122;28;20127;-81
2021/03/21 10:18:55;;;;;;;35.28;5.75;;;7.00;99.90;;;;;;5067465;28;20135;-83
2021/03/21 10:21:24;;;;;;;45.65;6.35;;;7.00;99.90;;;;;;5069802;28;20044;-82
2021/03/21 10:23:57;;;;;;;42.22;6.97;;;7.10;99.90;;;;;;5052280;28;20510;-84
2021/03/21 10:26:28;;;;;;;37.92;5.80;;;7.30;99.90;;;;;;5066791;28;20155;-82
2021/03/21 10:29:09;;;;;;;50.38;6.53;;;7.30;99.90;;;;;;5066189;28;20471;-83
2021/03/21 10:31:37;;;;;;;34.97;4.38;;;7.20;99.90;;;;;;5048424;28;20586;-81
2021/03/21 10:34:02;;;;;;;44.00;5.93;;;7.30;99.90;;;;;;5069976;28;20044;-78
2021/03/21 10:36:37;;;;;;;43.65;6.53;;;7.20;99.90;;;;;;5083104;28;20055;-80
2021/03/21 10:39:07;;;;;;;;;;;7.30;99.90;;;;;;5093443;28;20052;-80
2021/03/21 10:42:03;;;;;;;25.92;4.43;;;7.30;99.90;;;;;;5060072;28;19965;-80
2021/03/21 10:44:32;;;;;;;34.10;5.15;;;7.20;99.90;;;;;;5091344;28;20187;-80
2021/03/21 10:47:01;;;;;;;42.42;6.80;;;7.40;99.90;;;;;;5113452;28;20505;-80
2021/03/21 10:49:51;;;;;;;50.35;6.40;;;7.30;99.90;;;;;;5095296;28;20080;-81
2021/03/21 10:52:23;;;;;;;43.28;5.70;;;7.40;99.90;;;;;;5077004;28;20108;-81
2021/03/21 10:55:22;;;;;;;45.38;6.40;;;7.30;99.90;;;;;;5095897;28;20039;-80
2021/03/21 10:57:49;;;;;;;46.30;6.00;;;7.40;99.90;;;;;;5060161;28;20102;-84
2021/03/21 11:00:30;;;;;;;33.92;5.50;;;7.50;99.90;;;;;;5030894;28;20053;-80
2021/03/21 11:03:02;;;;;;;50.22;6.97;;;7.30;99.90;;;;;;5025469;28;20053;-79
2021/03/21 11:05:56;;;;;;;43.65;6.70;;;7.30;99.90;;;;;;5028522;28;20141;-81
2021/03/21 11:08:33;;;;;;;42.78;5.10;;;7.40;99.90;;;;;;5019975;28;20049;-79
2021/03/21 11:11:16;;;;;;;44.75;6.88;;;7.40;99.90;;;;;;5043673;28;20045;-81
2021/03/21 11:13:43;;;;;;;35.33;5.60;;;7.30;99.90;;;;;;5003619;28;20041;-80
2021/03/21 11:16:23;;;;;;;40.65;5.28;;;7.60;99.90;;;;;;5026180;28;20041;-79
2021/03/21 11:19:01;;;;;;;41.15;6.45;;;7.70;99.90;;;;;;5015203;28;20185;-81
2021/03/21 11:21:32;;;;;;;37.60;5.00;;;7.60;99.90;;;;;;5032838;28;20128;-80
2021/03/21 11:24:06;;;;;;;42.35;7.13;;;7.60;99.90;;;;;;5016236;28;20149;-78
2021/03/21 11:26:33;;;;;;;40.70;6.32;;;7.70;99.90;;;;;;5034805;28;20061;-80
2021/03/21 11:29:04;;;;;;;48.92;6.20;;;7.50;99.90;;;;;;5050149;28;20045;-81
2021/03/21 11:31:42;;;;;;;35.45;5.80;;;7.60;99.90;;;;;;5036467;28;20056;-80
2021/03/21 11:34:19;;;;;;;25.20;4.57;;;7.60;99.90;;;;;;5064555;28;20048;-79
2021/03/21 11:37:06;;;;;;;36.13;5.47;;;7.50;99.90;;;;;;5090490;28;20071;-80
2021/03/21 11:39:42;;;;;;;50.08;7.35;;;7.50;99.90;;;;;;5089338;28;20043;-80
2021/03/21 11:42:19;;;;;;;41.30;5.32;;;7.80;99.90;;;;;;5090451;28;20052;-80
2021/03/21 11:44:48;;;;;;;49.78;6.60;;;7.80;99.90;;;;;;5091922;28;20476;-80
2021/03/21 11:47:14;;;;;;;33.17;4.72;;;7.80;99.90;;;;;;5106401;28;20035;-80
2021/03/21 11:49:41;;;;;;;39.35;5.88;;;7.80;99.90;;;;;;5093558;28;20054;-80
2021/03/21 11:52:08;;;;;;;34.47;6.20;;;7.90;99.90;;;;;;5092172;28;20065;-80
2021/03/21 11:54:36;;;;;;;25.85;4.03;;;7.80;99.90;;;;;;5098298;28;20036;-80
2021/03/21 11:57:17;;;;;;;46.10;6.88;;;7.80;99.90;;;;;;5089231;28;20058;-80
2021/03/21 11:59:55;;;;;;;40.83;7.25;;;8.00;99.90;;;;;;5094223;28;20044;-80
2021/03/21 12:02:46;;;;;;;38.65;6.03;;;8.10;99.90;;;;;;5090424;28;20055;-80
2021/03/21 12:05:22;;;;;;;46.85;6.53;;;8.10;99.90;;;;;;5111970;28;20451;-80
2021/03/21 12:07:48;;;;;;;47.92;6.82;;;8.30;99.90;;;;;;5111558;28;20042;-80
2021/03/21 12:10:31;;;;;;;45.55;7.38;;;8.20;99.90;;;;;;5093198;28;20055;-80
2021/03/21 12:12:58;;;;;;;48.40;7.38;;;8.40;99.90;;;;;;5092710;28;20048;-80
2021/03/21 12:15:24;;;;;;;37.80;5.43;;;8.40;99.90;;;;;;5073896;28;20115;-80
2021/03/21 12:18:02;;;;;;;36.53;5.15;;;8.20;99.90;;;;;;5094711;28;20115;-80
2021/03/21 12:20:43;;;;;;;42.95;6.03;;;8.10;99.80;;;;;;5095093;28;20055;-80
2021/03/21 12:23:25;;;;;;;46.00;6.95;;;8.00;99.90;;;;;;5095184;28;20134;-80
2021/03/21 12:26:06;;;;;;;38.45;5.25;;;7.90;99.90;;;;;;5086699;28;20048;-80
2021/03/21 12:28:34;;;;;;;38.88;5.93;;;8.10;99.70;;;;;;5096953;28;20187;-80
2021/03/21 12:31:04;;;;;;;34.05;4.65;;;8.10;99.90;;;;;;5115421;28;20139;-80
2021/03/21 12:33:35;;;;;;;36.05;5.43;;;8.00;99.90;;;;;;5093784;28;20046;-80
2021/03/21 12:36:07;;;;;;;41.15;6.47;;;7.80;99.90;;;;;;5112478;28;20494;-80
2021/03/21 12:38:41;;;;;;;43.10;6.47;;;7.80;99.90;;;;;;5080433;28;20503;-80
2021/03/21 12:41:24;;;;;;;39.85;6.68;;;7.80;99.90;;;;;;5078538;28;20134;-80
2021/03/21 12:44:39;;;;;;;52.97;6.35;;;7.60;99.90;;;;;;5110797;28;20478;-80
2021/03/21 12:47:17;;;;;;;42.97;5.82;;;7.70;99.90;;;;;;5015961;28;20448;-80
2021/03/21 12:49:53;;;;;;;51.42;6.20;;;7.50;99.90;;;;;;5029415;28;20076;-80
2021/03/21 12:52:42;;;;;;;42.80;6.05;;;7.60;99.90;;;;;;5038886;28;20061;-82
2021/03/21 12:55:10;;;;;;;43.13;6.63;;;7.60;99.90;;;;;;5023248;28;20057;-81
2021/03/21 12:57:36;;;;;;;33.78;4.97;;;7.50;99.90;;;;;;5031503;28;20132;-81
2021/03/21 13:00:04;;;;;;;39.38;5.85;;;7.70;99.90;;;;;;5044015;28;20116;-81
2021/03/21 13:02:34;;;;;;;35.10;5.22;;;7.60;99.90;;;;;;5007397;28;20042;-80
2021/03/21 13:05:03;;;;;;;39.92;5.53;;;7.70;99.90;;;;;;5050227;28;20124;-79
2021/03/21 13:07:29;;;;;;;34.45;5.10;;;7.60;99.90;;;;;;5026332;28;20065;-78
2021/03/21 13:09:56;;;;;;;31.27;4.90;;;7.50;99.90;;;;;;5039109;28;20218;-80
2021/03/21 13:12:23;;;;;;;30.48;5.22;;;7.40;99.90;;;;;;5028090;28;20037;-80
2021/03/21 13:14:50;;;;;;;38.60;5.53;;;7.70;99.90;;;;;;5016158;28;20506;-81
2021/03/21 13:17:17;;;;;;;42.63;5.18;;;7.40;99.90;;;;;;5031760;28;20049;-80
2021/03/21 13:19:43;;;;;;;45.03;5.95;;;7.60;99.90;;;;;;5038679;28;20099;-81
2021/03/21 13:22:10;;;;;;;51.75;7.88;;;7.70;99.90;;;;;;5018009;28;20056;-80
2021/03/21 13:24:36;;;;;;;32.78;4.93;;;7.70;99.90;;;;;;5083863;28;20406;-81
2021/03/21 13:27:03;;;;;;;40.58;7.20;;;7.80;99.90;;;;;;5095873;28;20126;-81
2021/03/21 13:29:29;;;;;;;36.47;5.72;;;7.80;99.90;;;;;;5095912;28;20514;-81
2021/03/21 13:31:55;;;;;;;30.95;5.30;;;7.70;99.90;;;;;;5077002;28;20040;-81
2021/03/21 13:34:22;;;;;;;34.13;4.60;;;7.60;99.90;;;;;;5085149;28;20036;-81